Time;durP1;ratioP1;P1;durP2;ratioP2;P2;SDS_P1;SDS_P2;PMS_P1;PMS_P2;Temp;Humidity;BMP_temperature;BMP_pressure;BME280_temperature;BME280_humidity;BME280_pressure;Samples;Min_cycle;Max_cycle;Signal;HPM_P1;HPM_P2
2022/06/18 00:00:16;;;;;;;2.47;2.27;;;;;;;;;;4975157;28;20557;-55
2022/06/18 00:02:43;;;;;;;3.50;2.53;;;;;;;;;;4975497;28;20208;-54
2022/06/18 00:05:10;;;;;;;2.53;2.33;;;;;;;;;;4975505;28;20206;-56
2022/06/18 00:07:40;;;;;;;3.53;2.30;;;;;;;;;;4975717;28;20203;-56
2022/06/18 00:10:07;;;;;;;3.47;2.37;;;;;;;;;;4973785;28;20227;-56
2022/06/18 00:15:21;;;;;;;3.23;2.30;;;;;;;;;;4975349;28;20334;-56
2022/06/18 00:17:47;;;;;;;3.00;2.60;;;;;;;;;;4975342;28;20342;-56
2022/06/18 00:20:14;;;;;;;2.80;2.60;;;;;;;;;;4975300;28;20262;-56
2022/06/18 00:22:40;;;;;;;2.70;2.50;;;;;;;;;;4975133;28;20940;-57
2022/06/18 00:25:10;;;;;;;2.93;2.50;;;;;;;;;;4975089;28;20252;-55
2022/06/18 00:27:37;;;;;;;2.47;2.27;;;;;;;;;;4975244;28;20207;-55
2022/06/18 00:30:06;;;;;;;3.07;2.40;;;;;;;;;;4974687;28;20764;-56
2022/06/18 00:32:32;;;;;;;3.37;2.77;;;;;;;;;;4975105;28;20244;-57
2022/06/18 00:34:58;;;;;;;2.60;2.40;;;;;;;;;;4975015;28;20573;-55
2022/06/18 00:37:25;;;;;;;3.57;2.87;;;;;;;;;;4974611;28;20210;-56
2022/06/18 00:39:51;;;;;;;3.30;2.60;;;;;;;;;;4974066;28;20203;-56
2022/06/18 00:42:23;;;;;;;2.30;2.10;;;;;;;;;;4974657;28;20230;-56
2022/06/18 00:44:54;;;;;;;3.20;2.40;;;;;;;;;;4974919;28;20281;-56
2022/06/18 00:47:22;;;;;;;4.67;2.63;;;;;;;;;;4974759;28;20207;-56
2022/06/18 00:49:50;;;;;;;2.70;2.50;;;;;;;;;;4974956;28;20235;-56
2022/06/18 00:52:18;;;;;;;3.90;2.67;;;;;;;;;;4974692;28;20207;-56
2022/06/18 00:54:46;;;;;;;3.07;2.37;;;;;;;;;;4972969;28;20199;-56
2022/06/18 00:57:16;;;;;;;2.87;2.53;;;;;;;;;;4974118;28;20206;-56
2022/06/18 00:59:44;;;;;;;4.40;2.47;;;;;;;;;;4974719;28;20390;-56
2022/06/18 01:02:15;;;;;;;3.07;2.50;;;;;;;;;;4974539;28;20200;-56
2022/06/18 01:04:41;;;;;;;2.40;2.20;;;;;;;;;;4974520;28;20204;-56
2022/06/18 01:07:18;;;;;;;2.90;2.60;;;;;;;;;;4974342;28;20199;-56
2022/06/18 01:09:45;;;;;;;2.60;2.20;;;;;;;;;;4974422;28;20273;-56
2022/06/18 01:12:11;;;;;;;2.47;2.27;;;;;;;;;;4974226;28;20726;-56
2022/06/18 01:14:38;;;;;;;3.67;2.20;;;;;;;;;;4974315;28;20211;-56
2022/06/18 01:17:06;;;;;;;2.37;2.17;;;;;;;;;;4974187;28;20238;-56
2022/06/18 01:19:34;;;;;;;2.23;2.03;;;;;;;;;;4974288;28;20689;-57
2022/06/18 01:22:05;;;;;;;2.40;2.20;;;;;;;;;;4974271;28;20302;-56
2022/06/18 01:24:34;;;;;;;3.33;2.20;;;;;;;;;;4974412;28;20618;-56
2022/06/18 01:27:00;;;;;;;2.30;2.00;;;;;;;;;;4973958;28;20647;-55
2022/06/18 01:29:26;;;;;;;3.33;2.10;;;;;;;;;;4973928;28;20203;-55
2022/06/18 01:31:52;;;;;;;2.50;2.30;;;;;;;;;;4973920;28;20221;-55
2022/06/18 01:34:20;;;;;;;3.17;1.97;;;;;;;;;;4973911;28;20206;-55
2022/06/18 01:36:46;;;;;;;2.23;2.00;;;;;;;;;;4974049;28;20199;-56
2022/06/18 01:39:15;;;;;;;2.57;2.10;;;;;;;;;;4973673;28;20203;-55
2022/06/18 01:41:50;;;;;;;2.20;2.00;;;;;;;;;;4973797;28;20206;-55
2022/06/18 01:44:19;;;;;;;2.53;2.00;;;;;;;;;;4973490;28;20261;-56
2022/06/18 01:46:46;;;;;;;4.03;2.20;;;;;;;;;;4973543;28;20613;-56
2022/06/18 01:49:14;;;;;;;2.30;2.10;;;;;;;;;;4973664;28;20654;-55
2022/06/18 01:51:42;;;;;;;2.90;2.23;;;;;;;;;;4973175;28;20765;-56
2022/06/18 01:54:10;;;;;;;3.40;2.27;;;;;;;;;;4973524;28;20207;-56
2022/06/18 01:56:38;;;;;;;3.40;2.10;;;;;;;;;;4973593;28;20674;-56
2022/06/18 01:59:08;;;;;;;2.33;2.07;;;;;;;;;;4973478;28;20261;-56
2022/06/18 02:01:39;;;;;;;3.10;2.20;;;;;;;;;;4973566;28;20203;-56
2022/06/18 02:04:05;;;;;;;2.47;2.27;;;;;;;;;;4973396;28;20568;-55
2022/06/18 02:06:31;;;;;;;2.47;2.20;;;;;;;;;;4973471;28;20207;-56
2022/06/18 02:08:58;;;;;;;2.33;2.03;;;;;;;;;;4973353;28;20199;-56
2022/06/18 02:11:24;;;;;;;2.73;2.00;;;;;;;;;;4972978;28;20604;-55
2022/06/18 02:13:52;;;;;;;2.27;2.10;;;;;;;;;;4973293;28;20290;-56
2022/06/18 02:16:21;;;;;;;2.30;2.10;;;;;;;;;;4973080;28;20573;-56
2022/06/18 02:18:49;;;;;;;2.53;2.20;;;;;;;;;;4973205;28;20209;-55
2022/06/18 02:21:15;;;;;;;5.43;2.30;;;;;;;;;;4973171;28;20291;-56
2022/06/18 02:23:41;;;;;;;2.27;2.07;;;;;;;;;;4973061;28;20207;-55
2022/06/18 02:26:08;;;;;;;2.33;2.20;;;;;;;;;;4972945;28;20229;-56
2022/06/18 02:28:41;;;;;;;2.93;2.20;;;;;;;;;;4973168;28;20245;-56
2022/06/18 02:31:11;;;;;;;2.63;2.20;;;;;;;;;;4972806;28;20231;-55
2022/06/18 02:33:40;;;;;;;2.40;2.20;;;;;;;;;;4971221;28;20669;-55
2022/06/18 02:36:11;;;;;;;2.23;1.97;;;;;;;;;;4972913;28;20634;-56
2022/06/18 02:38:37;;;;;;;2.50;2.30;;;;;;;;;;4973129;28;20278;-55
2022/06/18 02:41:03;;;;;;;2.03;1.93;;;;;;;;;;4972884;28;20283;-55
2022/06/18 02:43:29;;;;;;;4.83;2.10;;;;;;;;;;4972749;28;20203;-55
2022/06/18 02:45:56;;;;;;;3.43;1.90;;;;;;;;;;4972932;28;20209;-56
2022/06/18 02:48:25;;;;;;;2.13;1.93;;;;;;;;;;4972724;28;20199;-56
2022/06/18 02:50:52;;;;;;;2.93;2.10;;;;;;;;;;4972490;28;20246;-55
2022/06/18 02:53:18;;;;;;;2.40;2.20;;;;;;;;;;4971046;28;20729;-56
2022/06/18 02:55:46;;;;;;;3.03;2.00;;;;;;;;;;4972677;28;20298;-55
2022/06/18 02:58:14;;;;;;;1.97;1.80;;;;;;;;;;4972607;28;20282;-56
2022/06/18 03:00:42;;;;;;;2.07;1.97;;;;;;;;;;4972761;28;20202;-55
2022/06/18 03:03:10;;;;;;;3.20;2.00;;;;;;;;;;4972967;28;20658;-55
2022/06/18 03:05:36;;;;;;;3.30;2.00;;;;;;;;;;4976580;28;20612;-56
2022/06/18 03:08:04;;;;;;;2.87;2.40;;;;;;;;;;4976792;28;20209;-55
2022/06/18 03:13:18;;;;;;;2.50;2.30;;;;;;;;;;4976553;28;20191;-55
2022/06/18 03:15:44;;;;;;;2.43;2.23;;;;;;;;;;4976626;28;20206;-55
2022/06/18 03:18:10;;;;;;;2.17;1.97;;;;;;;;;;4976388;28;20207;-55
2022/06/18 03:20:41;;;;;;;2.00;1.90;;;;;;;;;;4976578;28;20773;-55
2022/06/18 03:23:13;;;;;;;2.40;2.20;;;;;;;;;;4976439;28;20211;-55
2022/06/18 03:25:39;;;;;;;2.00;1.80;;;;;;;;;;4976159;28;20281;-56
2022/06/18 03:28:05;;;;;;;5.90;1.97;;;;;;;;;;4976076;28;20214;-56
2022/06/18 03:30:31;;;;;;;2.13;1.90;;;;;;;;;;4975816;28;20239;-56
2022/06/18 03:32:57;;;;;;;2.70;2.00;;;;;;;;;;4976072;28;20605;-55
2022/06/18 03:35:22;;;;;;;3.37;1.80;;;;;;;;;;4975903;28;20214;-55
2022/06/18 03:37:48;;;;;;;2.27;2.07;;;;;;;;;;4976307;28;20242;-55
2022/06/18 03:40:16;;;;;;;2.73;2.30;;;;;;;;;;4975972;28;20692;-55
2022/06/18 03:42:42;;;;;;;2.10;1.90;;;;;;;;;;4975894;28;20290;-55
2022/06/18 03:45:09;;;;;;;2.40;2.20;;;;;;;;;;4976137;28;20208;-56
2022/06/18 03:47:35;;;;;;;2.20;2.00;;;;;;;;;;4975738;28;20254;-56
2022/06/18 03:50:01;;;;;;;2.97;2.10;;;;;;;;;;4975896;28;20227;-55
2022/06/18 03:52:27;;;;;;;2.17;2.00;;;;;;;;;;4975886;28;20268;-56
2022/06/18 03:54:53;;;;;;;2.27;2.07;;;;;;;;;;4975749;28;20826;-56
2022/06/18 03:57:20;;;;;;;2.87;2.40;;;;;;;;;;4975678;28;20196;-56
2022/06/18 03:59:46;;;;;;;2.40;2.00;;;;;;;;;;4975818;28;20212;-57
2022/06/18 04:02:13;;;;;;;2.50;2.20;;;;;;;;;;4975659;28;20545;-56
2022/06/18 04:04:39;;;;;;;3.07;2.03;;;;;;;;;;4975522;28;20203;-57
2022/06/18 04:07:05;;;;;;;2.37;2.00;;;;;;;;;;4975566;28;20219;-55
2022/06/18 04:09:31;;;;;;;3.33;1.87;;;;;;;;;;4973768;28;20205;-57
2022/06/18 04:11:58;;;;;;;2.23;1.70;;;;;;;;;;4975116;28;20645;-56
2022/06/18 04:14:26;;;;;;;2.33;1.97;;;;;;;;;;4975076;28;20208;-55
2022/06/18 04:16:52;;;;;;;3.10;1.90;;;;;;;;;;4975433;28;20216;-55
2022/06/18 04:19:18;;;;;;;4.60;1.93;;;;;;;;;;4975192;28;20208;-55
2022/06/18 04:21:44;;;;;;;2.20;2.00;;;;;;;;;;4975303;28;20197;-57
2022/06/18 04:24:10;;;;;;;3.77;1.77;;;;;;;;;;4975314;28;20198;-55
2022/06/18 04:26:36;;;;;;;2.90;2.20;;;;;;;;;;4975002;28;20233;-56
2022/06/18 04:29:02;;;;;;;3.60;1.93;;;;;;;;;;4975468;28;20244;-56
2022/06/18 04:31:29;;;;;;;3.30;2.20;;;;;;;;;;4974959;28;20697;-55
2022/06/18 04:33:55;;;;;;;1.80;1.70;;;;;;;;;;4975103;28;20208;-56
2022/06/18 04:36:29;;;;;;;1.63;1.53;;;;;;;;;;4974898;28;20205;-56
2022/06/18 04:38:55;;;;;;;3.67;2.00;;;;;;;;;;4975024;28;20193;-56
2022/06/18 04:41:21;;;;;;;3.70;2.10;;;;;;;;;;4974746;28;20197;-55
2022/06/18 04:43:47;;;;;;;2.00;1.83;;;;;;;;;;4975153;28;20201;-56
2022/06/18 04:46:13;;;;;;;2.97;2.10;;;;;;;;;;4974710;28;20264;-56
2022/06/18 04:48:41;;;;;;;2.73;2.07;;;;;;;;;;4974732;28;20210;-56
2022/06/18 04:51:07;;;;;;;2.27;2.07;;;;;;;;;;4974828;28;20229;-55
2022/06/18 04:53:33;;;;;;;2.47;1.80;;;;;;;;;;4974610;28;20191;-55
2022/06/18 04:55:59;;;;;;;3.63;2.13;;;;;;;;;;4974697;28;20660;-56
2022/06/18 04:58:25;;;;;;;3.27;2.00;;;;;;;;;;4974539;28;20203;-56
2022/06/18 05:00:51;;;;;;;2.33;2.13;;;;;;;;;;4974747;28;20198;-56
2022/06/18 05:03:18;;;;;;;3.23;2.07;;;;;;;;;;4974573;28;20235;-55
2022/06/18 05:05:45;;;;;;;4.20;2.40;;;;;;;;;;4974347;28;20203;-55
2022/06/18 05:08:11;;;;;;;3.23;1.87;;;;;;;;;;4974584;28;20214;-55
2022/06/18 05:10:37;;;;;;;5.07;2.40;;;;;;;;;;4974126;28;20230;-56
2022/06/18 05:13:05;;;;;;;3.23;2.20;;;;;;;;;;4974322;28;20551;-57
2022/06/18 05:15:31;;;;;;;2.60;1.90;;;;;;;;;;4972565;28;20217;-56
2022/06/18 05:17:58;;;;;;;3.23;1.90;;;;;;;;;;4974228;28;20213;-56
2022/06/18 05:20:24;;;;;;;3.80;2.30;;;;;;;;;;4974353;28;20665;-56
2022/06/18 05:22:51;;;;;;;2.20;1.90;;;;;;;;;;4974222;28;20206;-56
2022/06/18 05:25:18;;;;;;;2.97;2.00;;;;;;;;;;4973774;28;20199;-57
2022/06/18 05:27:45;;;;;;;5.97;2.00;;;;;;;;;;4973580;28;20303;-56
2022/06/18 05:30:13;;;;;;;5.67;1.90;;;;;;;;;;4973846;28;20326;-56
2022/06/18 05:32:39;;;;;;;4.53;2.13;;;;;;;;;;4974039;28;20209;-56
2022/06/18 05:35:05;;;;;;;4.60;2.13;;;;;;;;;;4974108;28;20207;-56
2022/06/18 05:37:32;;;;;;;3.33;2.10;;;;;;;;;;4973667;28;20223;-56
2022/06/18 05:39:59;;;;;;;4.00;2.40;;;;;;;;;;4973828;28;20665;-56
2022/06/18 05:42:25;;;;;;;3.37;2.13;;;;;;;;;;4973707;28;20203;-56
2022/06/18 05:44:52;;;;;;;2.50;2.13;;;;;;;;;;4973599;28;20257;-56
2022/06/18 05:47:20;;;;;;;3.03;2.00;;;;;;;;;;4973807;28;20187;-56
2022/06/18 05:49:46;;;;;;;5.77;2.40;;;;;;;;;;4973890;28;20203;-56
2022/06/18 05:52:12;;;;;;;2.70;2.20;;;;;;;;;;4973459;28;20202;-56
2022/06/18 05:54:38;;;;;;;4.30;2.20;;;;;;;;;;4973684;28;20245;-57
2022/06/18 05:57:06;;;;;;;2.30;2.10;;;;;;;;;;4973683;28;20207;-56
2022/06/18 05:59:32;;;;;;;2.17;1.90;;;;;;;;;;4973901;28;20204;-56
2022/06/18 06:01:59;;;;;;;3.57;2.10;;;;;;;;;;4973652;28;20669;-55
2022/06/18 06:04:26;;;;;;;2.97;2.10;;;;;;;;;;4973274;28;20203;-56
2022/06/18 06:06:52;;;;;;;4.60;2.50;;;;;;;;;;4973643;28;20202;-57
2022/06/18 06:12:03;;;;;;;2.80;2.27;;;;;;;;;;4973296;28;20351;-56
2022/06/18 06:14:31;;;;;;;5.53;2.50;;;;;;;;;;4973046;28;20676;-55
2022/06/18 06:16:57;;;;;;;3.53;2.20;;;;;;;;;;4972795;28;20734;-56
2022/06/18 06:19:24;;;;;;;4.27;2.30;;;;;;;;;;4972902;28;20203;-57
2022/06/18 06:21:50;;;;;;;3.13;2.20;;;;;;;;;;4972962;28;20567;-57
2022/06/18 06:24:16;;;;;;;3.63;2.50;;;;;;;;;;4972807;28;20761;-57
2022/06/18 06:26:42;;;;;;;3.50;2.47;;;;;;;;;;4972536;28;20585;-57
2022/06/18 06:29:08;;;;;;;3.60;2.37;;;;;;;;;;4973011;28;20199;-56
2022/06/18 06:31:36;;;;;;;2.80;2.40;;;;;;;;;;4972175;28;20243;-56
2022/06/18 06:34:02;;;;;;;2.97;2.70;;;;;;;;;;4973048;28;20207;-57
2022/06/18 06:36:28;;;;;;;4.93;2.90;;;;;;;;;;4971912;28;20200;-56
2022/06/18 06:38:54;;;;;;;3.67;2.43;;;;;;;;;;4971648;28;20259;-56
2022/06/18 06:41:22;;;;;;;5.60;2.70;;;;;;;;;;4972651;28;20197;-56
2022/06/18 06:43:48;;;;;;;4.93;2.80;;;;;;;;;;4972375;28;20209;-55
2022/06/18 06:46:18;;;;;;;5.27;2.50;;;;;;;;;;4972737;28;20687;-56
2022/06/18 06:48:45;;;;;;;2.87;2.50;;;;;;;;;;4972242;28;20208;-56
2022/06/18 06:51:13;;;;;;;4.57;2.70;;;;;;;;;;4972492;28;20588;-56
2022/06/18 06:53:39;;;;;;;4.47;2.50;;;;;;;;;;4972365;28;20720;-56
2022/06/18 06:58:49;;;;;;;7.10;2.83;;;;;;;;;;4972667;28;20220;-56
2022/06/18 07:01:15;;;;;;;4.17;2.57;;;;;;;;;;4972883;28;20202;-56
2022/06/18 07:03:42;;;;;;;2.73;2.47;;;;;;;;;;4972863;28;20198;-56
2022/06/18 07:06:10;;;;;;;4.07;2.77;;;;;;;;;;4972429;28;20232;-56
2022/06/18 07:08:36;;;;;;;5.93;3.10;;;;;;;;;;4972721;28;20211;-56
2022/06/18 07:11:02;;;;;;;7.47;3.40;;;;;;;;;;4971848;28;20264;-56
2022/06/18 07:13:28;;;;;;;4.63;3.10;;;;;;;;;;4972435;28;20194;-55
2022/06/18 07:15:56;;;;;;;3.83;3.00;;;;;;;;;;4972777;28;20206;-57
2022/06/18 07:18:24;;;;;;;5.20;2.50;;;;;;;;;;4972236;28;20197;-55
2022/06/18 07:20:50;;;;;;;5.03;2.70;;;;;;;;;;4972431;28;20258;-55
2022/06/18 07:23:17;;;;;;;4.40;2.87;;;;;;;;;;4972382;28;20626;-56
2022/06/18 07:25:43;;;;;;;4.40;2.60;;;;;;;;;;4972015;28;20390;-55
2022/06/18 07:28:09;;;;;;;6.37;2.90;;;;;;;;;;4972354;28;20294;-56
2022/06/18 07:30:36;;;;;;;5.60;3.10;;;;;;;;;;4971918;28;20246;-56
2022/06/18 07:33:02;;;;;;;5.37;3.47;;;;;;;;;;4972370;28;20678;-56
2022/06/18 07:35:29;;;;;;;3.93;3.07;;;;;;;;;;4972326;28;20213;-55
2022/06/18 07:37:59;;;;;;;7.57;3.30;;;;;;;;;;4972212;28;20622;-56
2022/06/18 07:40:30;;;;;;;5.63;3.27;;;;;;;;;;4972060;28;20590;-56
2022/06/18 07:42:56;;;;;;;7.87;3.10;;;;;;;;;;4972275;28;20201;-56
2022/06/18 07:45:23;;;;;;;7.50;2.93;;;;;;;;;;4972264;28;20207;-56
2022/06/18 07:47:49;;;;;;;11.80;3.53;;;;;;;;;;4971704;28;20264;-56
2022/06/18 07:50:16;;;;;;;5.70;3.40;;;;;;;;;;4974186;28;20243;-56
2022/06/18 07:52:44;;;;;;;4.50;3.40;;;;;;;;;;4975404;28;20194;-57
2022/06/18 07:55:12;;;;;;;12.23;3.43;;;;;;;;;;4975523;28;20721;-56
2022/06/18 07:57:39;;;;;;;5.80;2.90;;;;;;;;;;4975657;28;20294;-56
2022/06/18 08:00:09;;;;;;;4.63;2.90;;;;;;;;;;4975669;28;20212;-56
2022/06/18 08:02:36;;;;;;;5.80;3.37;;;;;;;;;;4975115;28;20203;-56
2022/06/18 08:05:02;;;;;;;5.57;3.13;;;;;;;;;;4974900;28;20197;-57
2022/06/18 08:07:28;;;;;;;6.10;3.40;;;;;;;;;;4975458;28;20197;-56
2022/06/18 08:09:54;;;;;;;4.80;2.90;;;;;;;;;;4974878;28;20204;-56
2022/06/18 08:12:20;;;;;;;4.53;3.50;;;;;;;;;;4975378;28;20284;-56
2022/06/18 08:14:50;;;;;;;4.75;3.30;;;;;;;;;;4973997;28;21055;-57
2022/06/18 08:17:16;;;;;;;5.80;3.00;;;;;;;;;;4975249;28;20441;-54
2022/06/18 08:19:41;;;;;;;5.87;3.10;;;;;;;;;;4975407;28;20209;-55
2022/06/18 08:22:07;;;;;;;7.70;3.13;;;;;;;;;;4975047;28;20198;-57
2022/06/18 08:24:34;;;;;;;6.20;3.57;;;;;;;;;;4974892;28;20237;-56
2022/06/18 08:27:00;;;;;;;5.33;3.00;;;;;;;;;;4975163;28;20226;-56
2022/06/18 08:29:27;;;;;;;5.97;3.23;;;;;;;;;;4974749;28;20898;-57
2022/06/18 08:31:54;;;;;;;9.83;3.70;;;;;;;;;;4975118;28;20241;-56
2022/06/18 08:34:20;;;;;;;4.43;2.60;;;;;;;;;;4975000;28;20210;-57
2022/06/18 08:36:46;;;;;;;6.93;3.10;;;;;;;;;;4973002;28;20198;-57
2022/06/18 08:39:12;;;;;;;8.18;3.45;;;;;;;;;;4973492;28;20828;-57
2022/06/18 08:41:44;;;;;;;8.02;3.40;;;;;;;;;;4973236;28;20446;-59
2022/06/18 08:44:25;;;;;;;4.60;3.05;;;;;;;;;;4973323;28;20432;-57
2022/06/18 08:46:57;;;;;;;9.90;3.40;;;;;;;;;;4942358;28;20204;-57
2022/06/18 08:49:31;;;;;;;4.93;3.20;;;;;;;;;;4974525;28;20192;-58
2022/06/18 08:52:04;;;;;;;6.07;3.33;;;;;;;;;;4974403;28;20297;-58
2022/06/18 08:54:35;;;;;;;5.67;2.90;;;;;;;;;;4974285;28;20199;-57
2022/06/18 08:57:05;;;;;;;4.23;3.20;;;;;;;;;;4974465;28;20212;-57
2022/06/18 08:59:35;;;;;;;8.17;3.47;;;;;;;;;;4974127;28;20211;-57
2022/06/18 09:02:06;;;;;;;5.97;2.90;;;;;;;;;;4973216;28;20201;-57
2022/06/18 09:04:41;;;;;;;8.67;3.37;;;;;;;;;;4974314;28;20206;-57
2022/06/18 09:07:18;;;;;;;5.13;3.40;;;;;;;;;;4974073;28;20259;-57
2022/06/18 09:09:47;;;;;;;8.23;3.73;;;;;;;;;;4973832;28;20205;-57
2022/06/18 09:12:17;;;;;;;5.67;3.50;;;;;;;;;;4973864;28;20236;-58
2022/06/18 09:14:47;;;;;;;6.83;3.53;;;;;;;;;;4973931;28;20248;-57
2022/06/18 09:17:17;;;;;;;10.40;3.23;;;;;;;;;;4973821;28;20667;-57
2022/06/18 09:19:47;;;;;;;7.57;3.30;;;;;;;;;;4974139;28;20205;-58
2022/06/18 09:22:16;;;;;;;4.63;2.90;;;;;;;;;;4973758;28;20566;-58
2022/06/18 09:24:44;;;;;;;9.23;3.27;;;;;;;;;;4973596;28;20208;-57
2022/06/18 09:27:13;;;;;;;7.87;3.10;;;;;;;;;;4973777;28;20312;-58
2022/06/18 09:29:43;;;;;;;7.07;3.20;;;;;;;;;;4973565;28;20203;-57
2022/06/18 09:32:11;;;;;;;7.30;3.30;;;;;;;;;;4973938;28;20237;-57
2022/06/18 09:34:41;;;;;;;7.50;3.50;;;;;;;;;;4973640;28;20255;-56
2022/06/18 09:37:11;;;;;;;8.00;3.20;;;;;;;;;;4973877;28;20295;-56
2022/06/18 09:39:40;;;;;;;8.67;3.70;;;;;;;;;;4973592;28;20621;-57
2022/06/18 09:42:09;;;;;;;8.53;3.50;;;;;;;;;;4973604;28;20206;-57
2022/06/18 09:44:37;;;;;;;7.40;3.70;;;;;;;;;;4973332;28;20215;-57
2022/06/18 09:47:07;;;;;;;7.80;3.60;;;;;;;;;;4973365;28;20211;-57
2022/06/18 09:49:33;;;;;;;7.07;3.67;;;;;;;;;;4973400;28;20212;-57
2022/06/18 09:54:29;;;;;;;8.73;3.73;;;;;;;;;;4973366;28;20678;-58
2022/06/18 09:56:58;;;;;;;10.63;3.20;;;;;;;;;;4973111;28;20302;-57
2022/06/18 09:59:26;;;;;;;7.07;3.53;;;;;;;;;;4973360;28;20210;-57
2022/06/18 10:01:53;;;;;;;9.37;3.60;;;;;;;;;;4972846;28;20630;-58
2022/06/18 10:07:10;;;;;;;7.37;3.70;;;;;;;;;;4973114;28;20263;-58
2022/06/18 10:09:41;;;;;;;11.87;3.60;;;;;;;;;;4972990;28;20261;-57
2022/06/18 10:12:14;;;;;;;8.50;3.20;;;;;;;;;;4972869;28;20312;-57
2022/06/18 10:14:40;;;;;;;10.33;3.87;;;;;;;;;;4972828;28;20290;-57
2022/06/18 10:17:12;;;;;;;12.13;4.10;;;;;;;;;;4972537;28;20296;-58
2022/06/18 10:19:46;;;;;;;5.60;3.20;;;;;;;;;;4972620;28;20701;-59
2022/06/18 10:22:14;;;;;;;6.50;3.53;;;;;;;;;;4973271;28;20199;-58
2022/06/18 10:24:46;;;;;;;7.33;3.30;;;;;;;;;;4973037;28;20202;-58
2022/06/18 10:27:16;;;;;;;8.33;3.33;;;;;;;;;;4973163;28;20231;-60
2022/06/18 10:29:48;;;;;;;6.13;3.40;;;;;;;;;;4973082;28;20250;-59
2022/06/18 10:32:22;;;;;;;11.13;3.80;;;;;;;;;;4973072;28;20813;-59
2022/06/18 10:34:58;;;;;;;8.23;3.63;;;;;;;;;;4973078;28;20206;-58
2022/06/18 10:37:29;;;;;;;5.67;3.70;;;;;;;;;;4972969;28;20211;-59
2022/06/18 10:40:00;;;;;;;7.57;3.60;;;;;;;;;;4972685;28;20217;-60
2022/06/18 10:42:31;;;;;;;8.90;3.20;;;;;;;;;;4973016;28;20267;-60
2022/06/18 10:45:02;;;;;;;9.83;4.00;;;;;;;;;;4972553;28;20298;-60
2022/06/18 10:47:31;;;;;;;13.23;3.73;;;;;;;;;;4973008;28;20578;-60
2022/06/18 10:50:00;;;;;;;13.20;3.80;;;;;;;;;;4972838;28;20202;-60
2022/06/18 10:52:27;;;;;;;11.60;3.80;;;;;;;;;;4972766;28;20234;-58
2022/06/18 10:55:05;;;;;;;9.17;3.60;;;;;;;;;;4970935;28;20616;-60
2022/06/18 10:57:31;;;;;;;7.60;3.40;;;;;;;;;;4972920;28;20313;-60
2022/06/18 11:00:07;;;;;;;8.17;3.80;;;;;;;;;;4972649;28;20226;-60
2022/06/18 11:02:35;;;;;;;6.83;3.77;;;;;;;;;;4972872;28;20657;-60
2022/06/18 11:05:03;;;;;;;8.97;3.53;;;;;;;;;;4972556;28;20303;-59
2022/06/18 11:07:32;;;;;;;10.30;3.40;;;;;;;;;;4972506;28;20200;-60
2022/06/18 11:09:59;;;;;;;12.43;3.63;;;;;;;;;;4972468;28;20695;-60
2022/06/18 11:12:28;;;;;;;6.83;3.23;;;;;;;;;;4972498;28;20222;-60
2022/06/18 11:14:55;;;;;;;7.23;3.50;;;;;;;;;;4972352;28;20774;-60
2022/06/18 11:17:22;;;;;;;9.67;3.73;;;;;;;;;;4972042;28;20197;-60
2022/06/18 11:19:48;;;;;;;6.50;3.53;;;;;;;;;;4972378;28;20627;-59
2022/06/18 11:22:18;;;;;;;9.40;3.53;;;;;;;;;;4972396;28;20219;-59
2022/06/18 11:24:44;;;;;;;7.23;3.63;;;;;;;;;;4973728;28;20619;-60
2022/06/18 11:27:14;;;;;;;7.63;3.50;;;;;;;;;;4976190;28;20313;-60
2022/06/18 11:29:42;;;;;;;6.27;3.30;;;;;;;;;;4976250;28;20300;-59
2022/06/18 11:32:09;;;;;;;6.53;3.40;;;;;;;;;;4976396;28;20321;-60
2022/06/18 11:34:37;;;;;;;8.73;3.23;;;;;;;;;;4976400;28;20202;-60
2022/06/18 11:37:12;;;;;;;7.70;3.53;;;;;;;;;;4975974;28;20201;-59
2022/06/18 11:39:38;;;;;;;11.70;3.60;;;;;;;;;;4976167;28;20244;-59
2022/06/18 11:42:10;;;;;;;6.90;3.20;;;;;;;;;;4975752;28;20209;-59
2022/06/18 11:44:38;;;;;;;9.60;3.80;;;;;;;;;;4976153;28;20220;-60
2022/06/18 11:47:09;;;;;;;9.00;3.40;;;;;;;;;;4975877;28;20236;-59
2022/06/18 11:49:38;;;;;;;11.27;3.47;;;;;;;;;;4975791;28;20231;-60
2022/06/18 11:52:09;;;;;;;8.67;3.40;;;;;;;;;;4975571;28;20227;-60
2022/06/18 11:54:39;;;;;;;11.03;3.67;;;;;;;;;;4975820;28;20202;-60
2022/06/18 11:57:12;;;;;;;6.43;3.00;;;;;;;;;;4975697;28;20205;-60
2022/06/18 11:59:39;;;;;;;10.23;4.30;;;;;;;;;;4975589;28;20665;-59
2022/06/18 12:02:10;;;;;;;13.97;3.40;;;;;;;;;;4975680;28;20224;-59
2022/06/18 12:04:39;;;;;;;7.50;3.40;;;;;;;;;;4975842;28;20252;-59
2022/06/18 12:07:09;;;;;;;11.23;3.37;;;;;;;;;;4975752;28;20206;-60
2022/06/18 12:09:35;;;;;;;9.10;2.97;;;;;;;;;;4975659;28;20209;-59
2022/06/18 12:12:05;;;;;;;8.53;3.30;;;;;;;;;;4975029;28;20332;-60
2022/06/18 12:14:34;;;;;;;6.77;3.30;;;;;;;;;;4975349;28;20216;-59
2022/06/18 12:17:03;;;;;;;5.87;3.20;;;;;;;;;;4975253;28;20207;-60
2022/06/18 12:19:32;;;;;;;7.27;3.37;;;;;;;;;;4975299;28;20198;-60
2022/06/18 12:22:02;;;;;;;9.10;3.30;;;;;;;;;;4975272;28;20203;-60
2022/06/18 12:24:33;;;;;;;10.97;3.17;;;;;;;;;;4975122;28;20568;-59
2022/06/18 12:27:02;;;;;;;8.13;3.30;;;;;;;;;;4974714;28;20269;-59
2022/06/18 12:29:40;;;;;;;12.33;3.50;;;;;;;;;;4974881;28;20212;-59
2022/06/18 12:32:11;;;;;;;12.23;3.20;;;;;;;;;;4975050;28;20251;-59
2022/06/18 12:34:43;;;;;;;11.27;3.43;;;;;;;;;;4975191;28;20234;-59
2022/06/18 12:37:13;;;;;;;9.47;3.20;;;;;;;;;;4974672;28;20205;-60
2022/06/18 12:39:41;;;;;;;10.93;3.77;;;;;;;;;;4974781;28;20285;-60
2022/06/18 12:42:11;;;;;;;9.90;3.90;;;;;;;;;;4974843;28;20197;-60
2022/06/18 12:44:40;;;;;;;8.90;3.50;;;;;;;;;;4975052;28;20241;-59
2022/06/18 12:47:10;;;;;;;10.10;3.67;;;;;;;;;;4974705;28;20240;-60
2022/06/18 12:49:39;;;;;;;9.93;3.60;;;;;;;;;;4974547;28;20552;-59
2022/06/18 12:52:11;;;;;;;9.33;3.20;;;;;;;;;;4974303;28;20319;-60
2022/06/18 12:54:44;;;;;;;10.37;3.90;;;;;;;;;;4974561;28;20693;-59
2022/06/18 12:57:17;;;;;;;13.23;3.30;;;;;;;;;;4974533;28;20269;-59
2022/06/18 12:59:49;;;;;;;11.97;3.70;;;;;;;;;;4974672;28;20199;-60
2022/06/18 13:02:18;;;;;;;9.67;3.47;;;;;;;;;;4974771;28;20195;-60
2022/06/18 13:04:55;;;;;;;8.93;3.40;;;;;;;;;;4974682;28;20205;-61
2022/06/18 13:07:27;;;;;;;10.10;3.63;;;;;;;;;;4974556;28;20194;-60
2022/06/18 13:10:01;;;;;;;15.57;4.10;;;;;;;;;;4974234;28;20564;-60
2022/06/18 13:12:35;;;;;;;7.57;3.50;;;;;;;;;;4974228;28;20228;-60
2022/06/18 13:15:05;;;;;;;8.53;3.40;;;;;;;;;;4974237;28;20227;-59
2022/06/18 13:17:34;;;;;;;9.50;3.60;;;;;;;;;;4974372;28;20305;-59
2022/06/18 13:20:10;;;;;;;10.57;4.50;;;;;;;;;;4974355;28;20199;-61
2022/06/18 13:22:37;;;;;;;12.13;3.63;;;;;;;;;;4974418;28;20217;-61
2022/06/18 13:30:52;;;;;;;12.97;3.93;;;;;;;;;;4969128;28;20378;-61
2022/06/18 13:33:25;;;;;;;8.40;3.67;;;;;;;;;;4974339;28;20221;-59
2022/06/18 13:35:54;;;;;;;8.47;3.50;;;;;;;;;;4974132;28;20289;-59
2022/06/18 13:38:25;;;;;;;9.40;3.83;;;;;;;;;;4974205;28;20201;-61
2022/06/18 13:40:54;;;;;;;10.57;4.10;;;;;;;;;;4974128;28;20200;-60
2022/06/18 13:43:25;;;;;;;13.10;4.03;;;;;;;;;;4974042;28;20205;-59
2022/06/18 13:45:54;;;;;;;9.53;4.13;;;;;;;;;;4973844;28;20204;-59
2022/06/18 13:48:25;;;;;;;12.77;3.70;;;;;;;;;;4973384;28;20773;-60
2022/06/18 13:50:52;;;;;;;7.90;3.53;;;;;;;;;;4974798;28;20598;-60
2022/06/18 13:53:23;;;;;;;8.77;3.57;;;;;;;;;;4973884;28;20735;-60
2022/06/18 13:55:49;;;;;;;7.57;3.20;;;;;;;;;;4973546;28;20618;-60
2022/06/18 13:58:18;;;;;;;9.93;3.63;;;;;;;;;;4973086;28;20257;-59
2022/06/18 14:00:44;;;;;;;11.13;3.37;;;;;;;;;;4972949;28;20860;-59
2022/06/18 14:03:16;;;;;;;11.33;3.77;;;;;;;;;;4973261;28;20303;-61
2022/06/18 14:05:44;;;;;;;9.03;3.80;;;;;;;;;;4973971;28;20206;-60
2022/06/18 14:08:25;;;;;;;11.63;4.10;;;;;;;;;;4973088;28;20234;-60
2022/06/18 14:10:52;;;;;;;8.40;3.53;;;;;;;;;;4973447;28;20230;-59
2022/06/18 14:13:21;;;;;;;10.13;3.50;;;;;;;;;;4973382;28;20208;-59
2022/06/18 14:15:55;;;;;;;6.10;3.23;;;;;;;;;;4973283;28;20217;-59
2022/06/18 14:18:21;;;;;;;10.43;3.40;;;;;;;;;;4973022;28;20623;-60
2022/06/18 14:20:54;;;;;;;14.70;3.70;;;;;;;;;;4972927;28;20202;-60
2022/06/18 14:23:26;;;;;;;9.33;3.60;;;;;;;;;;4973001;28;20204;-60
2022/06/18 14:25:58;;;;;;;9.83;3.73;;;;;;;;;;4972934;28;20681;-59
2022/06/18 14:28:25;;;;;;;7.33;3.70;;;;;;;;;;4973148;28;20198;-61
2022/06/18 14:30:56;;;;;;;7.77;3.40;;;;;;;;;;4972647;28;20246;-60
2022/06/18 14:33:25;;;;;;;7.40;3.00;;;;;;;;;;4973030;28;20208;-60
2022/06/18 14:35:55;;;;;;;8.67;3.40;;;;;;;;;;4972905;28;20631;-60
2022/06/18 14:38:22;;;;;;;8.03;3.33;;;;;;;;;;4972772;28;20213;-60
2022/06/18 14:43:43;;;;;;;9.47;3.40;;;;;;;;;;4973011;28;20210;-61
2022/06/18 14:46:15;;;;;;;8.10;3.80;;;;;;;;;;4972933;28;20206;-60
2022/06/18 14:48:56;;;;;;;8.77;3.53;;;;;;;;;;4973048;28;20194;-60
2022/06/18 14:51:30;;;;;;;7.53;3.40;;;;;;;;;;4970294;28;20821;-60
2022/06/18 14:54:05;;;;;;;6.87;2.93;;;;;;;;;;4972663;28;20205;-60
2022/06/18 14:56:43;;;;;;;8.50;3.83;;;;;;;;;;4972678;28;20204;-61
2022/06/18 14:59:17;;;;;;;8.80;3.10;;;;;;;;;;4971701;28;20570;-59
2022/06/18 15:01:47;;;;;;;7.17;3.67;;;;;;;;;;4972599;28;20198;-60
2022/06/18 15:04:16;;;;;;;9.20;3.53;;;;;;;;;;4972461;28;20209;-59
2022/06/18 15:06:42;;;;;;;10.37;3.10;;;;;;;;;;4972572;28;20205;-59
2022/06/18 15:09:08;;;;;;;7.73;3.43;;;;;;;;;;4972659;28;20208;-60
2022/06/18 15:11:41;;;;;;;9.93;3.53;;;;;;;;;;4972508;28;20327;-59